createdAt,value
2023-02-15T00:04:59.759Z,32.37
2023-02-15T00:10:01.518Z,33.23
2023-02-15T00:15:05.092Z,37.17
2023-02-15T00:20:07.828Z,37.43
2023-02-15T00:25:09.600Z,38.80
2023-02-15T00:30:13.794Z,38.37
2023-02-15T00:35:15.687Z,39.53
2023-02-15T00:40:17.634Z,39.07
2023-02-15T00:45:22.198Z,37.40
2023-02-15T00:50:24.010Z,34.20
2023-02-15T00:55:25.756Z,35.40
2023-02-15T01:00:28.806Z,40.20
2023-02-15T01:05:33.288Z,37.47
2023-02-15T01:10:35.314Z,37.87
2023-02-15T01:15:38.421Z,37.50
2023-02-15T01:20:42.003Z,35.73
2023-02-15T01:25:43.730Z,34.80
2023-02-15T01:30:47.597Z,33.95
2023-02-15T01:35:57.185Z,33.73
2023-02-15T01:41:18.908Z,34.13
2023-02-15T01:46:24.479Z,31.70
2023-02-15T01:51:27.535Z,29.50
2023-02-15T01:56:34.394Z,30.70
2023-02-15T02:01:37.631Z,32.00
2023-02-15T02:06:39.378Z,31.30
2023-02-15T02:11:41.751Z,30.10
2023-02-15T02:16:48.260Z,32.90
2023-02-15T02:22:03.355Z,29.80
2023-02-15T02:27:30.007Z,33.13
2023-02-15T02:38:11.140Z,36.30
2023-02-15T02:43:17.170Z,34.70
2023-02-15T02:48:21.765Z,30.17
2023-02-15T02:53:24.554Z,27.27
2023-02-15T02:58:27.787Z,27.90
2023-02-15T03:03:32.929Z,27.67
2023-02-15T03:08:36.769Z,26.03
2023-02-15T03:13:38.629Z,27.60
2023-02-15T03:18:45.334Z,24.53
2023-02-15T03:23:47.116Z,24.43
2023-02-15T03:28:49.055Z,23.10
2023-02-15T03:33:54.460Z,25.80
2023-02-15T03:39:00.691Z,25.47
2023-02-15T03:44:05.561Z,25.80
2023-02-15T03:49:09.593Z,27.67
2023-02-15T03:54:13.499Z,27.70
2023-02-15T03:59:33.815Z,25.67
2023-02-15T04:04:37.998Z,24.53
2023-02-15T04:09:58.381Z,25.77
2023-02-15T04:15:18.616Z,27.27
2023-02-15T04:20:40.336Z,26.10
2023-02-15T04:25:42.019Z,23.30
2023-02-15T04:30:43.746Z,25.53
2023-02-15T04:35:46.771Z,24.37
2023-02-15T04:40:50.595Z,26.20
2023-02-15T04:45:52.471Z,26.87
2023-02-15T04:50:55.560Z,26.97
2023-02-15T04:55:57.245Z,27.67
2023-02-15T05:00:59.059Z,26.50
2023-02-15T05:06:02.427Z,27.07
2023-02-15T05:11:04.364Z,26.87
2023-02-15T05:16:06.062Z,26.70
2023-02-15T05:21:09.145Z,27.77
2023-02-15T05:26:29.838Z,28.33
2023-02-15T05:31:31.832Z,27.03
2023-02-15T05:36:35.092Z,25.60
2023-02-15T05:41:36.842Z,26.40
2023-02-15T05:46:38.621Z,27.37
2023-02-15T05:51:41.662Z,27.50
2023-02-15T05:56:43.403Z,26.70
2023-02-15T06:01:45.189Z,28.63
2023-02-15T06:06:48.309Z,27.67
2023-02-15T06:11:50.063Z,27.03
2023-02-15T06:16:51.857Z,25.93
2023-02-15T06:21:54.956Z,27.17
2023-02-15T06:26:56.698Z,26.63
2023-02-15T06:31:58.499Z,27.77
2023-02-15T06:37:01.558Z,26.80
2023-02-15T06:42:03.567Z,25.97
2023-02-15T06:47:05.435Z,25.83
2023-02-15T06:52:08.641Z,26.27
2023-02-15T06:57:10.585Z,28.90
2023-02-15T07:02:12.445Z,26.30
2023-02-15T07:07:15.460Z,24.20
2023-02-15T07:12:35.667Z,23.57
2023-02-15T07:17:37.518Z,23.00
2023-02-15T07:22:40.623Z,23.67
2023-02-15T07:27:42.402Z,23.57
2023-02-15T07:33:05.123Z,21.47
2023-02-15T07:38:08.648Z,21.40
2023-02-15T07:43:10.349Z,20.70
2023-02-15T07:48:12.012Z,20.30
2023-02-15T07:53:15.133Z,18.97
2023-02-15T07:58:16.850Z,20.37
2023-02-15T08:03:18.679Z,20.73
2023-02-15T08:08:31.111Z,20.30
2023-02-15T08:13:32.896Z,20.37
2023-02-15T08:18:35.281Z,16.90
2023-02-15T08:23:38.439Z,20.70
2023-02-15T08:28:40.298Z,19.73
2023-02-15T08:33:42.874Z,19.13
2023-02-15T08:38:45.885Z,20.60
2023-02-15T08:43:48.307Z,20.03
2023-02-15T08:48:50.114Z,18.60
2023-02-15T08:53:53.880Z,16.58
2023-02-15T08:58:55.617Z,16.48
2023-02-15T09:03:58.048Z,21.98
2023-02-15T09:09:01.049Z,15.82
2023-02-15T09:14:04.287Z,14.82
2023-02-15T09:19:06.099Z,12.82
2023-02-15T09:24:10.989Z,11.80
2023-02-15T09:29:12.942Z,12.10
2023-02-15T09:34:16.906Z,10.40
2023-02-15T09:39:20.969Z,9.75
2023-02-15T09:44:27.347Z,9.23
2023-02-15T09:49:32.545Z,9.98
2023-02-15T09:54:42.873Z,8.70
2023-02-15T09:59:47.254Z,8.50
2023-02-15T10:04:55.697Z,8.02
2023-02-15T10:10:07.626Z,7.85
2023-02-15T10:15:21.205Z,8.15
2023-02-15T10:20:27.082Z,8.23
2023-02-15T10:25:35.248Z,7.70
2023-02-15T10:30:42.264Z,6.95
2023-02-15T10:35:46.706Z,6.72
2023-02-15T10:40:57.360Z,7.53
2023-02-15T10:46:02.929Z,8.25
2023-02-15T10:51:05.656Z,8.00
2023-02-15T10:56:13.230Z,7.85
2023-02-15T11:01:20.751Z,8.23
2023-02-15T11:06:22.669Z,7.88
2023-02-15T11:11:27.616Z,10.38
2023-02-15T11:16:31.037Z,10.07
2023-02-15T11:21:33.996Z,10.10
2023-02-15T11:26:39.182Z,10.90
2023-02-15T11:31:44.396Z,11.97
2023-02-15T11:36:46.209Z,12.50
2023-02-15T11:41:53.019Z,12.10
2023-02-15T11:46:54.745Z,12.83
2023-02-15T11:51:56.437Z,13.47
2023-02-15T11:57:00.541Z,12.63
2023-02-15T12:02:02.242Z,13.80
2023-02-15T12:07:05.744Z,13.00
2023-02-15T12:12:25.353Z,13.00
2023-02-15T12:17:27.828Z,12.43
2023-02-15T12:22:30.579Z,13.00
2023-02-15T12:27:34.190Z,13.23
2023-02-15T12:32:36.683Z,13.47
2023-02-15T12:37:38.394Z,12.90
2023-02-15T12:42:45.670Z,12.77
2023-02-15T12:47:48.624Z,14.40
2023-02-15T12:52:51.377Z,15.03
2023-02-15T12:58:16.990Z,13.83
2023-02-15T13:03:19.788Z,14.93
2023-02-15T13:08:22.438Z,15.77
2023-02-15T13:13:27.214Z,13.60
2023-02-15T13:18:31.457Z,15.07
2023-02-15T13:23:34.779Z,15.67
2023-02-15T13:28:41.858Z,15.60
2023-02-15T13:33:46.356Z,14.77
2023-02-15T13:38:52.763Z,16.50
2023-02-15T13:44:00.139Z,15.03
2023-02-15T13:49:10.641Z,16.43
2023-02-15T13:54:33.229Z,18.63
2023-02-15T13:59:45.771Z,17.60
2023-02-15T14:04:56.876Z,16.10
2023-02-15T14:10:03.959Z,17.27
2023-02-15T14:15:22.844Z,18.03
2023-02-15T14:20:26.888Z,18.33
2023-02-15T14:25:30.373Z,16.17
2023-02-15T14:30:35.139Z,15.30
2023-02-15T14:35:38.100Z,14.87
2023-02-15T14:41:02.266Z,15.03
2023-02-15T14:46:09.419Z,15.23
2023-02-15T14:51:11.200Z,15.70
2023-02-15T14:56:30.983Z,16.40
2023-02-15T15:01:34.488Z,16.83
2023-02-15T15:06:37.726Z,15.87
2023-02-15T15:11:44.198Z,16.00
2023-02-15T15:16:51.746Z,15.30
2023-02-15T15:21:56.991Z,15.63
2023-02-15T15:27:31.981Z,15.73
2023-02-15T15:32:34.997Z,13.93
2023-02-15T15:37:47.774Z,15.10
2023-02-15T15:42:52.322Z,13.63
2023-02-15T15:48:07.098Z,13.40
2023-02-15T15:53:13.297Z,17.40
2023-02-15T15:58:16.575Z,16.67
2023-02-15T16:03:23.809Z,14.90
2023-02-15T16:08:30.012Z,15.57
2023-02-15T16:13:31.710Z,14.40
2023-02-15T16:18:37.103Z,13.20
2023-02-15T16:24:00.648Z,15.50
2023-02-15T16:29:02.454Z,15.00
2023-02-15T16:34:10.477Z,21.83
2023-02-15T16:39:18.818Z,18.90
2023-02-15T16:44:20.668Z,16.60
2023-02-15T16:49:24.213Z,12.93
2023-02-15T16:54:26.285Z,17.47
2023-02-15T16:59:32.339Z,29.60
2023-02-15T17:04:38.866Z,15.70
2023-02-15T17:09:43.118Z,13.60
2023-02-15T17:14:45.055Z,21.13
2023-02-15T17:19:50.347Z,23.00
2023-02-15T17:24:58.821Z,19.93
2023-02-15T17:30:01.701Z,16.73
2023-02-15T17:35:15.896Z,14.07
2023-02-15T17:40:23.037Z,26.20
2023-02-15T17:45:26.666Z,17.63
2023-02-15T17:50:29.865Z,21.50
2023-02-15T17:55:41.276Z,26.80
2023-02-15T18:01:02.960Z,25.60
2023-02-15T18:06:25.597Z,23.98
2023-02-15T18:11:39.568Z,130.03
2023-02-15T18:16:44.486Z,81.63
2023-02-15T18:21:47.598Z,35.87
2023-02-15T18:26:49.531Z,34.87
2023-02-15T18:31:52.971Z,27.63
2023-02-15T18:36:56.350Z,45.00
2023-02-15T18:41:58.019Z,32.93
2023-02-15T18:46:59.724Z,35.73
2023-02-15T18:52:02.953Z,29.20
2023-02-15T18:57:04.642Z,25.00
2023-02-15T19:02:11.701Z,33.40
2023-02-15T19:07:16.841Z,26.63
2023-02-15T19:12:19.652Z,25.90
2023-02-15T19:17:21.662Z,20.50
2023-02-15T19:22:26.317Z,19.83
2023-02-15T19:27:31.733Z,18.77
2023-02-15T19:32:33.606Z,23.63
2023-02-15T19:37:38.144Z,19.47
2023-02-15T19:42:39.844Z,25.55
2023-02-15T19:47:43.238Z,27.40
2023-02-15T19:52:46.455Z,32.87
2023-02-15T19:57:48.830Z,35.27
2023-02-15T20:02:50.594Z,17.80
2023-02-15T20:07:53.592Z,15.37
2023-02-15T20:12:55.464Z,13.50
2023-02-15T20:17:57.982Z,12.77
2023-02-15T20:23:01.064Z,13.70
2023-02-15T20:28:02.851Z,23.77
2023-02-15T20:33:04.617Z,33.13
2023-02-15T20:38:07.915Z,18.17
2023-02-15T20:43:10.798Z,14.67
2023-02-15T20:48:12.625Z,16.20
2023-02-15T20:53:15.756Z,14.83
2023-02-15T20:58:20.735Z,14.80
2023-02-15T21:03:26.375Z,13.87
2023-02-15T21:08:29.467Z,17.27
2023-02-15T21:13:32.163Z,12.97
2023-02-15T21:18:34.202Z,12.03
2023-02-15T21:23:38.131Z,12.80
2023-02-15T21:28:41.299Z,12.47
2023-02-15T21:33:44.311Z,19.93
2023-02-15T21:38:47.514Z,12.67
2023-02-15T21:44:07.746Z,13.40
2023-02-15T21:49:10.728Z,14.00
2023-02-15T21:54:14.713Z,12.50
2023-02-15T21:59:18.167Z,13.30
2023-02-15T22:04:21.531Z,12.87
2023-02-15T22:09:26.572Z,12.93
2023-02-15T22:14:35.333Z,13.30
2023-02-15T22:19:37.020Z,12.70
2023-02-15T22:24:40.265Z,13.43
2023-02-15T22:29:41.976Z,12.70
2023-02-15T22:34:43.717Z,12.15
2023-02-15T22:39:46.824Z,13.27
2023-02-15T22:44:48.585Z,12.40
2023-02-15T22:49:50.321Z,12.80
2023-02-15T22:54:53.346Z,14.17
2023-02-15T22:59:55.021Z,13.30
2023-02-15T23:04:56.725Z,13.77
2023-02-15T23:09:59.779Z,14.17
2023-02-15T23:15:01.504Z,13.70
2023-02-15T23:20:03.541Z,14.32
2023-02-15T23:25:08.721Z,13.80
2023-02-15T23:30:13.071Z,13.83
2023-02-15T23:35:15.300Z,14.60
2023-02-15T23:40:38.029Z,15.50
2023-02-15T23:45:39.812Z,15.57
2023-02-15T23:50:41.522Z,14.70
2023-02-15T23:55:44.529Z,15.03
